createdAt,value
2023-12-05T00:00:10.904Z,653.00
2023-12-05T00:01:10.942Z,653.00
2023-12-05T00:02:11.030Z,654.00
2023-12-05T00:03:11.258Z,657.00
2023-12-05T00:04:11.280Z,656.00
2023-12-05T00:05:11.370Z,658.00
2023-12-05T00:06:11.355Z,661.00
2023-12-05T00:07:11.443Z,662.00
2023-12-05T00:08:11.401Z,664.00
2023-12-05T00:09:11.470Z,663.00
2023-12-05T00:10:11.555Z,660.00
2023-12-05T00:11:11.610Z,657.00
2023-12-05T00:12:11.696Z,656.00
2023-12-05T00:13:11.719Z,658.00
2023-12-05T00:14:11.792Z,658.00
2023-12-05T00:15:11.898Z,658.00
2023-12-05T00:16:12.331Z,657.00
2023-12-05T00:17:12.063Z,653.00
2023-12-05T00:18:12.246Z,653.00
2023-12-05T00:19:12.281Z,648.00
2023-12-05T00:20:12.205Z,647.00
2023-12-05T00:21:12.289Z,645.00
2023-12-05T00:22:12.340Z,645.00
2023-12-05T00:23:12.413Z,646.00
2023-12-05T00:24:12.477Z,644.00
2023-12-05T00:25:12.576Z,648.00
2023-12-05T00:26:12.639Z,647.00
2023-12-05T00:27:13.939Z,649.00
2023-12-05T00:28:12.740Z,649.00
2023-12-05T00:29:12.881Z,653.00
2023-12-05T00:30:12.965Z,655.00
2023-12-05T00:31:12.983Z,653.00
2023-12-05T00:32:13.033Z,652.00
2023-12-05T00:33:14.764Z,650.00
2023-12-05T00:34:13.170Z,649.00
2023-12-05T00:35:13.112Z,647.00
2023-12-05T00:36:13.130Z,649.00
2023-12-05T00:37:13.116Z,648.00
2023-12-05T00:38:13.136Z,649.00
2023-12-05T00:39:13.115Z,647.00
2023-12-05T00:40:13.153Z,649.00
2023-12-05T00:41:13.142Z,643.00
2023-12-05T00:42:13.152Z,642.00
2023-12-05T00:43:13.159Z,642.00
2023-12-05T00:44:13.115Z,640.00
2023-12-05T00:45:13.203Z,638.00
2023-12-05T00:46:13.124Z,642.00
2023-12-05T00:47:13.147Z,643.00
2023-12-05T00:48:13.284Z,643.00
2023-12-05T00:49:13.184Z,641.00
2023-12-05T00:50:13.156Z,640.00
2023-12-05T00:51:13.219Z,638.00
2023-12-05T00:52:13.134Z,636.00
2023-12-05T00:53:13.132Z,636.00
2023-12-05T00:54:15.146Z,636.00
2023-12-05T00:55:13.380Z,634.00
2023-12-05T00:56:13.395Z,633.00
2023-12-05T00:57:13.511Z,633.00
2023-12-05T00:58:13.584Z,633.00
2023-12-05T00:59:13.639Z,632.00
2023-12-05T01:00:13.797Z,632.00
2023-12-05T01:01:13.817Z,629.00
2023-12-05T01:02:13.848Z,627.00
2023-12-05T01:03:14.117Z,630.00
2023-12-05T01:04:14.083Z,627.00
2023-12-05T01:05:14.296Z,628.00
2023-12-05T01:06:14.137Z,626.00
2023-12-05T01:07:14.256Z,625.00
2023-12-05T01:08:14.263Z,627.00
2023-12-05T01:09:14.401Z,626.00
2023-12-05T01:10:14.958Z,625.00
2023-12-05T01:11:14.490Z,624.00
2023-12-05T01:12:14.639Z,625.00
2023-12-05T01:13:14.593Z,628.00
2023-12-05T01:14:14.694Z,625.00
2023-12-05T01:15:14.791Z,627.00
2023-12-05T01:16:14.833Z,627.00
2023-12-05T01:17:14.988Z,624.00
2023-12-05T01:18:15.117Z,623.00
2023-12-05T01:19:15.120Z,620.00
2023-12-05T01:20:15.135Z,619.00
2023-12-05T01:21:15.234Z,619.00
2023-12-05T01:22:15.281Z,614.00
2023-12-05T01:23:15.338Z,611.00
2023-12-05T01:24:15.449Z,614.00
2023-12-05T01:25:15.521Z,616.00
2023-12-05T01:26:15.563Z,617.00
2023-12-05T01:27:15.660Z,619.00
2023-12-05T01:28:15.655Z,618.00
2023-12-05T01:29:15.752Z,617.00
2023-12-05T01:30:15.846Z,615.00
2023-12-05T01:31:15.919Z,613.00
2023-12-05T01:32:16.071Z,612.00
2023-12-05T01:33:16.041Z,614.00
2023-12-05T01:34:16.199Z,611.00
2023-12-05T01:35:16.355Z,612.00
2023-12-05T01:36:16.228Z,613.00
2023-12-05T01:37:16.309Z,613.00
2023-12-05T01:38:16.423Z,612.00
2023-12-05T01:39:16.482Z,613.00
2023-12-05T01:40:16.517Z,610.00
2023-12-05T01:41:16.577Z,608.00
2023-12-05T01:42:16.711Z,609.00
2023-12-05T01:43:16.778Z,611.00
2023-12-05T01:44:16.816Z,610.00
2023-12-05T01:45:16.964Z,612.00
2023-12-05T01:46:16.958Z,610.00
2023-12-05T01:47:17.076Z,612.00
2023-12-05T01:48:17.308Z,610.00
2023-12-05T01:49:23.063Z,612.00
2023-12-05T01:50:18.411Z,612.00
2023-12-05T01:51:17.234Z,611.00
2023-12-05T01:52:17.209Z,610.00
2023-12-05T01:53:17.225Z,614.00
2023-12-05T01:54:17.239Z,614.00
2023-12-05T01:55:17.375Z,617.00
2023-12-05T01:56:17.248Z,614.00
2023-12-05T01:57:17.232Z,615.00
2023-12-05T01:58:17.309Z,614.00
2023-12-05T01:59:17.360Z,615.00
2023-12-05T02:00:17.445Z,613.00
2023-12-05T02:01:17.516Z,613.00
2023-12-05T02:02:17.539Z,609.00
2023-12-05T02:03:17.770Z,611.00
2023-12-05T02:04:17.882Z,608.00
2023-12-05T02:05:17.916Z,608.00
2023-12-05T02:06:17.868Z,605.00
2023-12-05T02:07:17.884Z,605.00
2023-12-05T02:08:17.971Z,606.00
2023-12-05T02:09:18.159Z,607.00
2023-12-05T02:10:18.149Z,604.00
2023-12-05T02:11:18.154Z,602.00
2023-12-05T02:12:18.293Z,602.00
2023-12-05T02:13:18.314Z,603.00
2023-12-05T02:14:18.443Z,600.00
2023-12-05T02:15:18.907Z,601.00
2023-12-05T02:16:18.562Z,600.00
2023-12-05T02:17:18.564Z,597.00
2023-12-05T02:18:18.761Z,601.00
2023-12-05T02:19:18.746Z,602.00
2023-12-05T02:20:18.751Z,601.00
2023-12-05T02:21:18.763Z,601.00
2023-12-05T02:22:18.804Z,601.00
2023-12-05T02:23:18.863Z,600.00
2023-12-05T02:24:18.965Z,597.00
2023-12-05T02:25:19.391Z,595.00
2023-12-05T02:26:19.017Z,594.00
2023-12-05T02:27:19.131Z,595.00
2023-12-05T02:28:19.120Z,590.00
2023-12-05T02:29:19.193Z,590.00
2023-12-05T02:30:19.305Z,587.00
2023-12-05T02:31:19.325Z,586.00
2023-12-05T02:32:19.354Z,583.00
2023-12-05T02:33:19.556Z,584.00
2023-12-05T02:34:19.575Z,586.00
2023-12-05T02:35:19.551Z,587.00
2023-12-05T02:36:19.632Z,586.00
2023-12-05T02:37:19.705Z,586.00
2023-12-05T02:38:19.776Z,584.00
2023-12-05T02:39:19.931Z,586.00
2023-12-05T02:40:19.904Z,586.00
2023-12-05T02:41:19.955Z,583.00
2023-12-05T02:42:20.079Z,586.00
2023-12-05T02:43:20.117Z,588.00
2023-12-05T02:44:20.170Z,587.00
2023-12-05T02:45:20.304Z,588.00
2023-12-05T02:46:20.249Z,592.00
2023-12-05T02:47:20.364Z,590.00
2023-12-05T02:48:20.486Z,589.00
2023-12-05T02:49:20.559Z,587.00
2023-12-05T02:50:20.541Z,584.00
2023-12-05T02:51:22.017Z,584.00
2023-12-05T02:52:20.609Z,585.00
2023-12-05T02:53:20.648Z,584.00
2023-12-05T02:54:20.730Z,587.00
2023-12-05T02:55:20.742Z,588.00
2023-12-05T02:56:20.834Z,586.00
2023-12-05T02:57:20.931Z,585.00
2023-12-05T02:58:20.928Z,581.00
2023-12-05T02:59:20.984Z,580.00
2023-12-05T03:00:21.190Z,578.00
2023-12-05T03:01:21.104Z,579.00
2023-12-05T03:02:21.182Z,580.00
2023-12-05T03:03:21.343Z,581.00
2023-12-05T03:04:21.412Z,582.00
2023-12-05T03:05:21.485Z,582.00
2023-12-05T03:06:21.491Z,578.00
2023-12-05T03:07:21.527Z,580.00
2023-12-05T03:08:21.514Z,579.00
2023-12-05T03:09:21.664Z,581.00
2023-12-05T03:10:21.636Z,582.00
2023-12-05T03:11:21.686Z,582.00
2023-12-05T03:12:21.753Z,582.00
2023-12-05T03:13:21.810Z,578.00
2023-12-05T03:14:21.870Z,577.00
2023-12-05T03:15:21.983Z,573.00
2023-12-05T03:16:21.920Z,573.00
2023-12-05T03:17:22.060Z,575.00
2023-12-05T03:18:22.241Z,575.00
2023-12-05T03:19:22.248Z,577.00
2023-12-05T03:20:22.215Z,575.00
2023-12-05T03:21:22.329Z,576.00
2023-12-05T03:22:22.290Z,572.00
2023-12-05T03:23:22.378Z,567.00
2023-12-05T03:24:22.347Z,567.00
2023-12-05T03:25:22.452Z,565.00
2023-12-05T03:26:22.441Z,565.00
2023-12-05T03:27:22.539Z,569.00
2023-12-05T03:28:22.589Z,569.00
2023-12-05T03:29:22.577Z,566.00
2023-12-05T03:30:22.739Z,564.00
2023-12-05T03:31:22.752Z,564.00
2023-12-05T03:32:22.825Z,568.00
2023-12-05T03:33:22.870Z,569.00
2023-12-05T03:34:22.983Z,571.00
2023-12-05T03:35:22.931Z,571.00
2023-12-05T03:36:22.992Z,575.00
2023-12-05T03:37:23.065Z,580.00
2023-12-05T03:38:23.058Z,576.00
2023-12-05T03:39:23.086Z,574.00
2023-12-05T03:40:23.178Z,573.00
2023-12-05T03:41:23.197Z,567.00
2023-12-05T03:42:23.254Z,566.00
2023-12-05T03:43:23.272Z,565.00
2023-12-05T03:44:23.306Z,563.00
2023-12-05T03:45:23.451Z,561.00
2023-12-05T03:46:23.376Z,559.00
2023-12-05T03:47:23.442Z,561.00
2023-12-05T03:48:23.561Z,565.00
2023-12-05T03:49:24.497Z,564.00
2023-12-05T03:50:23.554Z,566.00
2023-12-05T03:51:23.656Z,566.00
2023-12-05T03:52:23.649Z,561.00
2023-12-05T03:53:23.671Z,559.00
2023-12-05T03:54:23.788Z,561.00
2023-12-05T03:55:23.823Z,562.00
2023-12-05T03:56:23.875Z,565.00
2023-12-05T03:57:23.943Z,566.00
2023-12-05T03:58:24.005Z,566.00
2023-12-05T03:59:24.016Z,562.00
2023-12-05T04:00:24.433Z,558.00
2023-12-05T04:01:24.117Z,557.00
2023-12-05T04:02:24.214Z,558.00
2023-12-05T04:03:24.328Z,557.00
2023-12-05T04:04:24.390Z,551.00
2023-12-05T04:05:24.339Z,549.00
2023-12-05T04:06:24.509Z,550.00
2023-12-05T04:07:24.411Z,552.00
2023-12-05T04:08:24.456Z,548.00
2023-12-05T04:09:24.559Z,552.00
2023-12-05T04:10:25.793Z,556.00
2023-12-05T04:11:24.537Z,561.00
2023-12-05T04:12:24.567Z,560.00
2023-12-05T04:13:29.805Z,557.00
2023-12-05T04:14:25.595Z,556.00
2023-12-05T04:15:24.540Z,554.00
2023-12-05T04:16:24.533Z,552.00
2023-12-05T04:17:24.571Z,551.00
2023-12-05T04:18:24.695Z,551.00
2023-12-05T04:19:24.714Z,552.00
2023-12-05T04:20:24.566Z,553.00
2023-12-05T04:21:24.601Z,551.00
2023-12-05T04:22:24.569Z,550.00
2023-12-05T04:23:24.600Z,551.00
2023-12-05T04:24:24.631Z,552.00
2023-12-05T04:25:24.586Z,553.00
2023-12-05T04:26:25.224Z,550.00
2023-12-05T04:27:24.698Z,550.00
2023-12-05T04:28:24.731Z,549.00
2023-12-05T04:29:24.762Z,550.00
2023-12-05T04:30:24.922Z,549.00
2023-12-05T04:31:24.949Z,552.00
2023-12-05T04:32:24.978Z,553.00
2023-12-05T04:33:25.170Z,554.00
2023-12-05T04:34:25.180Z,552.00
2023-12-05T04:35:25.175Z,552.00
2023-12-05T04:36:25.298Z,551.00
2023-12-05T04:37:25.219Z,553.00
2023-12-05T04:38:25.326Z,551.00
2023-12-05T04:39:25.351Z,552.00
2023-12-05T04:40:32.608Z,562.00
2023-12-05T04:41:32.636Z,554.00
2023-12-05T04:42:32.643Z,554.00
2023-12-05T04:43:32.634Z,553.00
2023-12-05T04:44:32.660Z,552.00
2023-12-05T04:45:32.701Z,552.00
2023-12-05T04:46:32.746Z,553.00
2023-12-05T04:47:32.689Z,553.00
2023-12-05T04:48:32.737Z,551.00
2023-12-05T04:49:32.764Z,552.00
2023-12-05T04:50:32.666Z,551.00
2023-12-05T04:51:32.761Z,551.00
2023-12-05T04:52:32.663Z,552.00
2023-12-05T04:53:32.671Z,550.00
2023-12-05T04:54:32.671Z,550.00
2023-12-05T04:55:32.632Z,551.00
2023-12-05T04:56:32.679Z,552.00
2023-12-05T04:57:32.744Z,549.00
2023-12-05T04:58:32.650Z,545.00
2023-12-05T04:59:32.642Z,546.00
2023-12-05T05:00:32.682Z,547.00
2023-12-05T05:01:32.689Z,544.00
2023-12-05T05:02:32.683Z,545.00
2023-12-05T05:03:32.794Z,545.00
2023-12-05T05:04:32.780Z,547.00
2023-12-05T05:05:32.697Z,547.00
2023-12-05T05:06:32.827Z,545.00
2023-12-05T05:07:32.691Z,548.00
2023-12-05T05:08:32.662Z,545.00
2023-12-05T05:09:32.733Z,545.00
2023-12-05T05:10:32.692Z,543.00
2023-12-05T05:11:32.702Z,545.00
2023-12-05T05:12:32.705Z,544.00
2023-12-05T05:13:35.360Z,546.00
2023-12-05T05:14:32.712Z,544.00
2023-12-05T05:15:32.805Z,542.00
2023-12-05T05:16:32.714Z,542.00
2023-12-05T05:17:32.738Z,543.00
2023-12-05T05:18:32.752Z,540.00
2023-12-05T05:19:32.831Z,539.00
2023-12-05T05:20:32.709Z,539.00
2023-12-05T05:21:32.818Z,541.00
2023-12-05T05:22:32.706Z,539.00
2023-12-05T05:23:32.748Z,539.00
2023-12-05T05:24:32.734Z,542.00
2023-12-05T05:25:32.817Z,543.00
2023-12-05T05:26:32.733Z,545.00
2023-12-05T05:27:32.761Z,546.00
2023-12-05T05:28:32.746Z,545.00
2023-12-05T05:29:32.786Z,549.00
2023-12-05T05:30:32.927Z,546.00
2023-12-05T05:31:32.932Z,546.00
2023-12-05T05:32:32.970Z,542.00
2023-12-05T05:33:33.036Z,542.00
2023-12-05T05:34:32.950Z,544.00
2023-12-05T05:35:33.004Z,545.00
2023-12-05T05:36:33.069Z,547.00
2023-12-05T05:37:33.076Z,548.00
2023-12-05T05:38:33.114Z,547.00
2023-12-05T05:39:33.160Z,547.00
2023-12-05T05:40:33.145Z,547.00
2023-12-05T05:41:33.155Z,548.00
2023-12-05T05:42:33.268Z,549.00
2023-12-05T05:43:33.219Z,544.00
2023-12-05T05:44:33.290Z,544.00
2023-12-05T05:45:33.301Z,542.00
2023-12-05T05:46:33.341Z,543.00
2023-12-05T05:47:33.418Z,542.00
2023-12-05T05:48:33.486Z,542.00
2023-12-05T05:49:33.569Z,541.00
2023-12-05T05:50:33.433Z,540.00
2023-12-05T05:51:33.494Z,542.00
2023-12-05T05:52:33.575Z,543.00
2023-12-05T05:53:33.593Z,544.00
2023-12-05T05:54:33.640Z,546.00
2023-12-05T05:55:33.612Z,544.00
2023-12-05T05:56:33.606Z,544.00
2023-12-05T05:57:33.650Z,541.00
2023-12-05T05:58:33.657Z,543.00
2023-12-05T05:59:33.637Z,540.00
2023-12-05T06:00:33.670Z,537.00
2023-12-05T06:01:33.746Z,537.00
2023-12-05T06:02:33.659Z,535.00
2023-12-05T06:03:33.728Z,536.00
2023-12-05T06:04:33.826Z,538.00
2023-12-05T06:05:33.896Z,542.00
2023-12-05T06:06:33.820Z,543.00
2023-12-05T06:07:33.733Z,543.00
2023-12-05T06:08:33.751Z,540.00
2023-12-05T06:09:33.802Z,540.00
2023-12-05T06:10:33.777Z,541.00
2023-12-05T06:11:33.828Z,541.00
2023-12-05T06:12:33.824Z,540.00
2023-12-05T06:13:33.848Z,540.00
2023-12-05T06:14:33.805Z,540.00
2023-12-05T06:15:33.936Z,537.00
2023-12-05T06:16:33.863Z,538.00
2023-12-05T06:17:33.904Z,538.00
2023-12-05T06:18:33.926Z,537.00
2023-12-05T06:19:33.890Z,537.00
2023-12-05T06:20:33.908Z,536.00
2023-12-05T06:21:33.923Z,538.00
2023-12-05T06:22:33.972Z,541.00
2023-12-05T06:23:33.913Z,539.00
2023-12-05T06:24:33.972Z,537.00
2023-12-05T06:25:33.970Z,539.00
2023-12-05T06:26:33.976Z,533.00
2023-12-05T06:27:33.947Z,537.00
2023-12-05T06:28:34.010Z,536.00
2023-12-05T06:29:34.018Z,536.00
2023-12-05T06:30:34.043Z,534.00
2023-12-05T06:31:34.318Z,532.00
2023-12-05T06:32:34.062Z,533.00
2023-12-05T06:33:34.266Z,536.00
2023-12-05T06:34:34.136Z,537.00
2023-12-05T06:35:34.045Z,537.00
2023-12-05T06:36:34.066Z,539.00
2023-12-05T06:37:34.056Z,537.00
2023-12-05T06:38:34.071Z,536.00
2023-12-05T06:39:34.141Z,536.00
2023-12-05T06:40:34.128Z,537.00
2023-12-05T06:41:34.150Z,535.00
2023-12-05T06:42:34.168Z,536.00
2023-12-05T06:43:34.152Z,535.00
2023-12-05T06:44:34.166Z,530.00
2023-12-05T06:45:34.237Z,529.00
2023-12-05T06:46:34.294Z,531.00
2023-12-05T06:47:34.287Z,761.00
2023-12-05T06:48:34.368Z,572.00
2023-12-05T06:49:34.256Z,1107.00
2023-12-05T06:50:34.298Z,687.00
2023-12-05T06:51:34.276Z,1576.00
2023-12-05T06:52:34.320Z,752.00
2023-12-05T06:53:37.376Z,7399.00
2023-12-05T06:54:35.316Z,6834.00
2023-12-05T06:55:35.728Z,1010.00
2023-12-05T06:56:34.297Z,1008.00
2023-12-05T06:57:34.361Z,1022.00
2023-12-05T06:58:34.304Z,1147.00
2023-12-05T06:59:34.308Z,1056.00
2023-12-05T07:00:34.310Z,1134.00
2023-12-05T07:01:35.206Z,1212.00
2023-12-05T07:02:34.402Z,1325.00
2023-12-05T07:03:43.503Z,1176.00
2023-12-05T07:04:35.565Z,1234.00
2023-12-05T07:05:34.554Z,1270.00
2023-12-05T07:06:34.566Z,1323.00
2023-12-05T07:07:34.349Z,1356.00
2023-12-05T07:08:34.394Z,1360.00
2023-12-05T07:09:34.507Z,1377.00
2023-12-05T07:10:34.385Z,1440.00
2023-12-05T07:11:34.411Z,1455.00
2023-12-05T07:12:35.135Z,1467.00
2023-12-05T07:13:34.427Z,1539.00
2023-12-05T07:14:34.413Z,1577.00
2023-12-05T07:15:34.467Z,1625.00
2023-12-05T07:16:34.418Z,1634.00
2023-12-05T07:17:34.499Z,1700.00
2023-12-05T07:18:34.487Z,1699.00
2023-12-05T07:19:35.356Z,1714.00
2023-12-05T07:20:34.422Z,1745.00
2023-12-05T07:21:34.544Z,1759.00
2023-12-05T07:22:34.445Z,1793.00
2023-12-05T07:23:34.492Z,1809.00
2023-12-05T07:24:34.608Z,1918.00
2023-12-05T07:25:34.472Z,1944.00
2023-12-05T07:26:34.599Z,1972.00
2023-12-05T07:27:34.554Z,1984.00
2023-12-05T07:28:34.543Z,2008.00
2023-12-05T07:29:34.542Z,2024.00
2023-12-05T07:30:34.559Z,2095.00
2023-12-05T07:31:34.880Z,2108.00
2023-12-05T07:32:35.618Z,2158.00
2023-12-05T07:33:34.610Z,2140.00
2023-12-05T07:34:34.612Z,2135.00
2023-12-05T07:35:34.519Z,2169.00
2023-12-05T07:36:34.559Z,2177.00
2023-12-05T07:37:34.529Z,2270.00
2023-12-05T07:38:34.616Z,2309.00
2023-12-05T07:39:34.743Z,2301.00
2023-12-05T07:40:34.798Z,2310.00
2023-12-05T07:41:34.807Z,2298.00
2023-12-05T07:42:34.956Z,2315.00
2023-12-05T07:43:34.884Z,2314.00
2023-12-05T07:44:34.897Z,1437.00
2023-12-05T07:45:34.995Z,1033.00
2023-12-05T07:46:35.058Z,1124.00
2023-12-05T07:47:35.381Z,1247.00
2023-12-05T07:48:35.237Z,1282.00
2023-12-05T07:49:35.117Z,1486.00
2023-12-05T07:50:35.056Z,1481.00
2023-12-05T07:51:35.137Z,1547.00
2023-12-05T07:52:35.180Z,1305.00
2023-12-05T07:53:35.133Z,1249.00
2023-12-05T07:54:35.165Z,1337.00
2023-12-05T07:55:35.138Z,1412.00
2023-12-05T07:56:35.253Z,1428.00
2023-12-05T07:57:35.326Z,1503.00
2023-12-05T07:58:35.366Z,1583.00
2023-12-05T07:59:35.444Z,1622.00
2023-12-05T08:00:35.580Z,1678.00
2023-12-05T08:01:35.597Z,1689.00
2023-12-05T08:02:35.541Z,1701.00
2023-12-05T08:03:35.811Z,1713.00
2023-12-05T08:04:35.823Z,1738.00
2023-12-05T08:05:35.741Z,1822.00
2023-12-05T08:06:35.670Z,1872.00
2023-12-05T08:07:35.841Z,1926.00
2023-12-05T08:08:35.700Z,1953.00
2023-12-05T08:09:35.709Z,1974.00
2023-12-05T08:10:35.752Z,1974.00
2023-12-05T08:11:35.728Z,1999.00
2023-12-05T08:12:35.766Z,2050.00
2023-12-05T08:13:35.715Z,2419.00
2023-12-05T08:14:35.730Z,2141.00
2023-12-05T08:15:35.769Z,2140.00
2023-12-05T08:16:36.302Z,2158.00
2023-12-05T08:17:35.881Z,2169.00
2023-12-05T08:18:35.956Z,2233.00
2023-12-05T08:19:35.961Z,2242.00
2023-12-05T08:20:36.266Z,2274.00
2023-12-05T08:21:36.114Z,2290.00
2023-12-05T08:22:36.194Z,2319.00
2023-12-05T08:23:36.249Z,2347.00
2023-12-05T08:24:36.389Z,2354.00
2023-12-05T08:25:36.385Z,2365.00
2023-12-05T08:26:36.488Z,939.00
2023-12-05T08:27:36.534Z,700.00
2023-12-05T08:28:36.544Z,720.00
2023-12-05T08:29:36.555Z,738.00
2023-12-05T08:30:36.575Z,829.00
2023-12-05T08:31:36.591Z,879.00
2023-12-05T08:32:36.707Z,752.00
2023-12-05T08:33:36.763Z,878.00
2023-12-05T08:34:36.906Z,909.00
2023-12-05T08:35:36.921Z,963.00
2023-12-05T08:36:36.943Z,1006.00
2023-12-05T08:37:36.958Z,1125.00
2023-12-05T08:38:36.973Z,1149.00
2023-12-05T08:39:37.041Z,1198.00
2023-12-05T08:40:36.987Z,1239.00
2023-12-05T08:41:36.989Z,1266.00
2023-12-05T08:42:37.147Z,1284.00
2023-12-05T08:43:37.172Z,1309.00
2023-12-05T08:44:37.189Z,1337.00
2023-12-05T08:45:37.324Z,1379.00
2023-12-05T08:46:37.287Z,1437.00
2023-12-05T08:47:37.881Z,1448.00
2023-12-05T08:48:37.441Z,1450.00
2023-12-05T08:49:37.452Z,1508.00
2023-12-05T08:50:37.463Z,1523.00
2023-12-05T08:51:37.455Z,1516.00
2023-12-05T08:52:38.866Z,1564.00
2023-12-05T08:53:37.437Z,1718.00
2023-12-05T08:54:37.455Z,1730.00
2023-12-05T08:55:37.448Z,1806.00
2023-12-05T08:56:37.504Z,1862.00
2023-12-05T08:57:37.577Z,1879.00
2023-12-05T08:58:37.829Z,1892.00
2023-12-05T08:59:38.340Z,1918.00
2023-12-05T09:00:37.643Z,1951.00
2023-12-05T09:01:37.811Z,2000.00
2023-12-05T09:02:38.356Z,2069.00
2023-12-05T09:03:38.555Z,2168.00
2023-12-05T09:04:38.086Z,2177.00
2023-12-05T09:05:38.075Z,2182.00
2023-12-05T09:06:38.168Z,2191.00
2023-12-05T09:07:38.216Z,2193.00
2023-12-05T09:08:38.904Z,2244.00
2023-12-05T09:09:38.287Z,2270.00
2023-12-05T09:10:38.339Z,2287.00
2023-12-05T09:11:38.381Z,2298.00
2023-12-05T09:12:38.499Z,2322.00
2023-12-05T09:13:38.852Z,2390.00
2023-12-05T09:14:38.603Z,2399.00
2023-12-05T09:15:38.705Z,2437.00
2023-12-05T09:16:38.705Z,2452.00
2023-12-05T09:17:38.857Z,2487.00
2023-12-05T09:18:38.983Z,2503.00
2023-12-05T09:19:38.902Z,2495.00
2023-12-05T09:20:39.016Z,2474.00
2023-12-05T09:21:39.063Z,2256.00
2023-12-05T09:22:39.085Z,2239.00
2023-12-05T09:23:39.319Z,2207.00
2023-12-05T09:24:39.347Z,2180.00
2023-12-05T09:25:39.298Z,2192.00
2023-12-05T09:26:39.356Z,2204.00
2023-12-05T09:27:39.468Z,2286.00
2023-12-05T09:28:39.882Z,2301.00
2023-12-05T09:29:49.651Z,2312.00
2023-12-05T09:30:40.529Z,2413.00
2023-12-05T09:31:39.548Z,2454.00
2023-12-05T09:32:39.549Z,2460.00
2023-12-05T09:33:39.593Z,2482.00
2023-12-05T09:34:39.522Z,2512.00
2023-12-05T09:35:39.527Z,2547.00
2023-12-05T09:36:39.584Z,2570.00
2023-12-05T09:37:39.521Z,2636.00
2023-12-05T09:38:39.533Z,2618.00
2023-12-05T09:39:39.666Z,2633.00
2023-12-05T09:40:39.793Z,2728.00
2023-12-05T09:41:39.558Z,2720.00
2023-12-05T09:42:39.683Z,2637.00
2023-12-05T09:43:40.386Z,2553.00
2023-12-05T09:44:39.754Z,2529.00
2023-12-05T09:45:39.780Z,2430.00
2023-12-05T09:46:47.338Z,2481.00
2023-12-05T09:47:40.974Z,2471.00
2023-12-05T09:48:44.557Z,2453.00
2023-12-05T09:49:40.136Z,2463.00
2023-12-05T09:50:40.025Z,2597.00
2023-12-05T09:51:40.263Z,2502.00
2023-12-05T09:52:40.096Z,2508.00
2023-12-05T09:53:40.380Z,2490.00
2023-12-05T09:54:40.281Z,2504.00
2023-12-05T09:55:40.312Z,2528.00
2023-12-05T09:56:40.345Z,2664.00
2023-12-05T09:57:40.467Z,1937.00
2023-12-05T09:58:40.526Z,1425.00
2023-12-05T09:59:40.543Z,1639.00
2023-12-05T10:00:41.566Z,1477.00
2023-12-05T10:01:40.599Z,1623.00
2023-12-05T10:02:40.730Z,1633.00
2023-12-05T10:03:40.988Z,1579.00
2023-12-05T10:04:40.844Z,1544.00
2023-12-05T10:05:40.832Z,1217.00
2023-12-05T10:06:40.776Z,1291.00
2023-12-05T10:07:40.835Z,1312.00
2023-12-05T10:08:40.866Z,838.00
2023-12-05T10:09:40.917Z,769.00
2023-12-05T10:10:40.927Z,748.00
2023-12-05T10:11:40.977Z,743.00
2023-12-05T10:12:41.065Z,701.00
2023-12-05T10:13:41.059Z,694.00
2023-12-05T10:14:41.190Z,970.00
2023-12-05T10:15:41.250Z,779.00
2023-12-05T10:16:41.208Z,764.00
2023-12-05T10:17:41.349Z,767.00
2023-12-05T10:18:41.530Z,758.00
2023-12-05T10:19:41.522Z,729.00
2023-12-05T10:20:42.591Z,707.00
2023-12-05T10:21:41.517Z,715.00
2023-12-05T10:22:41.623Z,719.00
2023-12-05T10:23:41.664Z,725.00
2023-12-05T10:24:41.943Z,735.00
2023-12-05T10:25:41.777Z,712.00
2023-12-05T10:26:41.863Z,724.00
2023-12-05T10:27:41.939Z,727.00
2023-12-05T10:28:41.957Z,735.00
2023-12-05T10:29:42.179Z,748.00
2023-12-05T10:30:42.143Z,796.00
2023-12-05T10:31:42.201Z,762.00
2023-12-05T10:32:42.396Z,696.00
2023-12-05T10:33:42.377Z,701.00
2023-12-05T10:34:42.389Z,687.00
2023-12-05T10:35:43.203Z,746.00
2023-12-05T10:36:42.636Z,697.00
2023-12-05T10:37:43.417Z,686.00
2023-12-05T10:38:42.823Z,700.00
2023-12-05T10:39:42.791Z,658.00
2023-12-05T10:40:42.778Z,658.00
2023-12-05T10:41:42.906Z,685.00
2023-12-05T10:42:42.967Z,685.00
2023-12-05T10:43:43.047Z,690.00
2023-12-05T10:44:43.098Z,681.00
2023-12-05T10:45:43.188Z,678.00
2023-12-05T10:46:43.235Z,678.00
2023-12-05T10:47:43.302Z,1067.00
2023-12-05T10:48:43.465Z,1034.00
2023-12-05T10:49:43.423Z,1092.00
2023-12-05T10:50:43.495Z,950.00
2023-12-05T10:51:43.594Z,809.00
2023-12-05T10:52:43.581Z,608.00
2023-12-05T10:53:43.645Z,585.00
2023-12-05T10:54:43.738Z,573.00
2023-12-05T10:55:43.705Z,557.00
2023-12-05T10:56:43.760Z,527.00
2023-12-05T10:57:43.813Z,550.00
2023-12-05T10:58:43.843Z,518.00
2023-12-05T10:59:43.939Z,523.00
2023-12-05T11:00:43.985Z,494.00
2023-12-05T11:01:43.988Z,508.00
2023-12-05T11:02:44.016Z,517.00
2023-12-05T11:03:44.078Z,501.00
2023-12-05T11:04:44.433Z,494.00
2023-12-05T11:05:44.089Z,506.00
2023-12-05T11:06:44.187Z,492.00
2023-12-05T11:07:44.211Z,493.00
2023-12-05T11:08:44.266Z,476.00
2023-12-05T11:09:44.517Z,492.00
2023-12-05T11:10:44.275Z,497.00
2023-12-05T11:11:44.272Z,476.00
2023-12-05T11:12:44.372Z,509.00
2023-12-05T11:13:44.304Z,498.00
2023-12-05T11:14:44.351Z,469.00
2023-12-05T11:15:44.392Z,499.00
2023-12-05T11:16:44.419Z,492.00
2023-12-05T11:17:44.452Z,489.00
2023-12-05T11:18:44.569Z,484.00
2023-12-05T11:19:44.648Z,497.00
2023-12-05T11:20:44.589Z,500.00
2023-12-05T11:21:45.595Z,489.00
2023-12-05T11:22:44.576Z,496.00
2023-12-05T11:23:44.594Z,487.00
2023-12-05T11:24:44.604Z,474.00
2023-12-05T11:25:44.580Z,482.00
2023-12-05T11:26:48.025Z,484.00
2023-12-05T11:27:44.702Z,489.00
2023-12-05T11:28:44.596Z,513.00
2023-12-05T11:29:44.618Z,463.00
2023-12-05T11:30:44.655Z,495.00
2023-12-05T11:31:44.565Z,487.00
2023-12-05T11:32:44.658Z,496.00
2023-12-05T11:33:44.831Z,497.00
2023-12-05T11:34:45.115Z,500.00
2023-12-05T11:35:44.593Z,494.00
2023-12-05T11:36:44.615Z,533.00
2023-12-05T11:37:44.649Z,486.00
2023-12-05T11:38:44.613Z,491.00
2023-12-05T11:39:44.638Z,490.00
2023-12-05T11:40:44.649Z,492.00
2023-12-05T11:41:46.311Z,492.00
2023-12-05T11:42:44.666Z,495.00
2023-12-05T11:43:44.615Z,494.00
2023-12-05T11:44:44.623Z,503.00
2023-12-05T11:45:44.813Z,541.00
2023-12-05T11:46:44.635Z,539.00
2023-12-05T11:47:44.722Z,534.00
2023-12-05T11:48:44.694Z,532.00
2023-12-05T11:49:44.684Z,539.00
2023-12-05T11:50:44.694Z,550.00
2023-12-05T11:51:44.664Z,535.00
2023-12-05T11:52:44.694Z,530.00
2023-12-05T11:53:44.643Z,505.00
2023-12-05T11:54:44.704Z,505.00
2023-12-05T11:55:44.898Z,513.00
2023-12-05T11:56:44.642Z,496.00
2023-12-05T11:57:44.701Z,493.00
2023-12-05T11:58:44.659Z,491.00
2023-12-05T11:59:44.673Z,494.00
2023-12-05T12:00:44.934Z,494.00
2023-12-05T12:01:44.655Z,493.00
2023-12-05T12:02:44.668Z,495.00
2023-12-05T12:03:44.831Z,493.00
2023-12-05T12:04:44.646Z,493.00
2023-12-05T12:05:44.971Z,494.00
2023-12-05T12:06:45.056Z,495.00
2023-12-05T12:07:44.660Z,495.00
2023-12-05T12:08:44.687Z,495.00
2023-12-05T12:09:44.748Z,496.00
2023-12-05T12:10:44.882Z,498.00
2023-12-05T12:11:44.781Z,500.00
2023-12-05T12:12:44.708Z,502.00
2023-12-05T12:13:44.656Z,502.00
2023-12-05T12:14:44.690Z,503.00
2023-12-05T12:15:44.950Z,499.00
2023-12-05T12:16:44.664Z,498.00
2023-12-05T12:17:44.718Z,501.00
2023-12-05T12:18:53.008Z,499.00
2023-12-05T12:19:45.723Z,501.00
2023-12-05T12:20:44.681Z,501.00
2023-12-05T12:21:44.722Z,498.00
2023-12-05T12:22:44.821Z,498.00